Time;durP1;ratioP1;P1;durP2;ratioP2;P2;SDS_P1;SDS_P2;PMS_P1;PMS_P2;Temp;Humidity;BMP_temperature;BMP_pressure;BME280_temperature;BME280_humidity;BME280_pressure;Samples;Min_cycle;Max_cycle;Signal;HPM_P1;HPM_P2
2022/05/11 00:00:36;;;;;;;7.78;3.40;;;;;;;15.17;41.39;101013.66;1683328;84;21105;-82
2022/05/11 00:03:04;;;;;;;14.47;4.72;;;;;;;15.22;41.24;100998.69;1697104;83;21081;-81
2022/05/11 00:05:32;;;;;;;10.70;4.20;;;;;;;15.24;41.14;100998.67;1696589;84;21182;-82
2022/05/11 00:07:59;;;;;;;7.30;4.47;;;;;;;15.25;41.05;100992.06;1699251;84;21054;-82
2022/05/11 00:10:26;;;;;;;8.25;3.90;;;;;;;15.27;40.92;100999.59;1699679;82;22364;-81
2022/05/11 00:12:52;;;;;;;8.25;4.00;;;;;;;15.30;40.89;100994.78;1699840;84;21590;-81
2022/05/11 00:15:22;;;;;;;9.00;3.80;;;;;;;15.31;40.98;100992.12;1694637;82;21128;-83
2022/05/11 00:17:49;;;;;;;12.80;4.05;;;;;;;15.33;40.80;100991.73;1646719;83;21099;-80
2022/05/11 00:20:16;;;;;;;8.23;4.05;;;;;;;15.36;40.76;100985.55;1698146;83;21080;-80
2022/05/11 00:22:43;;;;;;;9.43;4.05;;;;;;;15.36;40.70;100978.47;1702843;84;22693;-81
2022/05/11 00:25:12;;;;;;;6.37;4.25;;;;;;;15.38;40.59;100981.14;1703089;82;21079;-81
2022/05/11 00:27:38;;;;;;;7.00;4.58;;;;;;;15.39;40.57;100980.70;1703199;83;21315;-81
2022/05/11 00:30:11;;;;;;;5.80;3.60;;;;;;;15.41;40.35;100981.59;1702331;82;21167;-82
2022/05/11 00:32:35;;;;;;;11.85;4.95;;;;;;;15.42;40.34;100982.06;1701998;83;21115;-82
2022/05/11 00:35:03;;;;;;;7.97;4.28;;;;;;;15.43;40.32;100989.13;1702780;82;21768;-82
2022/05/11 00:37:30;;;;;;;10.18;4.40;;;;;;;15.39;40.33;100969.67;1702399;82;21056;-82
2022/05/11 00:39:58;;;;;;;6.45;4.03;;;;;;;15.45;40.28;100983.42;1701628;82;21065;-82
2022/05/11 00:42:25;;;;;;;9.68;4.70;;;;;;;15.45;40.23;100982.10;1702702;82;21099;-82
2022/05/11 00:44:55;;;;;;;7.58;3.98;;;;;;;15.45;40.24;100980.33;1702093;82;21076;-81
2022/05/11 00:47:30;;;;;;;10.00;4.83;;;;;;;15.45;40.26;100971.49;1700785;82;23003;-80
2022/05/11 00:50:14;;;;;;;6.97;4.17;;;;;;;15.45;40.30;100970.16;1697783;83;21924;-80
2022/05/11 00:52:47;;;;;;;6.30;4.10;;;;;;;15.46;40.33;100970.15;1701963;82;21081;-81
2022/05/11 00:55:32;;;;;;;16.23;4.47;;;;;;;15.46;40.35;100959.54;1652810;85;21513;-82
2022/05/11 00:58:06;;;;;;;7.45;3.95;;;;;;;15.47;40.39;100950.72;1671574;84;21144;-82
2022/05/11 01:00:33;;;;;;;11.18;4.12;;;;;;;15.48;40.45;100935.68;1703113;83;21794;-82
2022/05/11 01:03:32;;;;;;;7.62;3.95;;;;;;;15.48;40.52;100927.72;1702724;82;21088;-82
2022/05/11 01:05:59;;;;;;;9.80;4.33;;;;;;;15.47;40.53;100925.52;1702577;82;21065;-81
2022/05/11 01:08:26;;;;;;;12.78;4.28;;;;;;;15.46;40.56;100916.22;1702783;84;21095;-82
2022/05/11 01:10:53;;;;;;;6.80;3.72;;;;;;;15.46;40.62;100921.08;1676343;82;21175;-81
2022/05/11 01:13:20;;;;;;;6.47;3.90;;;;;;;15.45;40.65;100920.64;1702565;82;21763;-81
2022/05/11 01:15:49;;;;;;;7.58;3.90;;;;;;;15.43;40.72;100920.16;1696609;84;21050;-80
2022/05/11 01:18:16;;;;;;;8.98;4.28;;;;;;;15.41;40.79;100920.17;1696513;84;21097;-81
2022/05/11 01:20:44;;;;;;;7.80;4.47;;;;;;;15.38;40.78;100916.61;1684119;85;22189;-80
2022/05/11 01:23:39;;;;;;;8.55;4.37;;;;;;;15.34;40.83;100917.89;1685044;84;21079;-81
2022/05/11 01:26:06;;;;;;;8.45;4.60;;;;;;;15.33;40.85;100913.90;1668891;83;21679;-80
2022/05/11 01:28:33;;;;;;;11.03;4.83;;;;;;;15.30;40.87;100909.92;1685242;83;21065;-81
2022/05/11 01:31:04;;;;;;;6.37;4.28;;;;;;;15.27;40.87;100904.13;1679576;83;21889;-81
2022/05/11 01:33:31;;;;;;;7.97;4.37;;;;;;;15.26;40.90;100909.41;1679530;84;21781;-81
2022/05/11 01:36:25;;;;;;;9.08;3.92;;;;;;;15.24;40.91;100918.71;1679435;84;21136;-81
2022/05/11 01:38:55;;;;;;;10.15;4.83;;;;;;;15.23;40.96;100912.94;1679432;83;21751;-81
2022/05/11 01:41:27;;;;;;;8.63;4.10;;;;;;;15.21;41.02;100911.16;1678577;83;21192;-81
2022/05/11 01:43:54;;;;;;;9.75;4.85;;;;;;;15.19;41.06;100908.49;1684748;83;21078;-80
2022/05/11 01:46:22;;;;;;;12.73;4.30;;;;;;;15.18;41.08;100910.67;1679249;84;21119;-80
2022/05/11 01:48:49;;;;;;;13.25;4.53;;;;;;;15.15;41.10;100910.22;1679752;84;21061;-81
2022/05/11 01:51:17;;;;;;;7.62;4.55;;;;;;;15.07;41.09;100896.44;1680036;84;21776;-81
2022/05/11 01:53:44;;;;;;;7.42;4.60;;;;;;;15.13;41.15;100932.31;1654553;86;21086;-81
2022/05/11 01:56:19;;;;;;;7.95;4.80;;;;;;;15.11;41.05;100974.71;1680322;83;21051;-81
2022/05/11 01:58:44;;;;;;;15.98;4.62;;;;;;;15.09;41.18;100987.06;1654241;85;21070;-79
2022/05/11 02:01:11;;;;;;;7.33;4.30;;;;;;;15.08;41.23;100962.73;1657711;84;21076;-80
2022/05/11 02:03:38;;;;;;;10.50;4.45;;;;;;;15.08;41.25;100956.11;1699444;83;21716;-81
2022/05/11 02:08:50;;;;;;;10.55;4.90;;;;;;;15.08;41.40;100942.86;1646232;86;21101;-81
2022/05/11 02:11:17;;;;;;;12.28;4.90;;;;;;;15.08;41.45;100939.33;1657820;86;21058;-81
2022/05/11 02:13:45;;;;;;;7.45;4.50;;;;;;;15.07;41.58;100926.52;1692099;83;21097;-80
2022/05/11 02:16:12;;;;;;;7.50;4.37;;;;;;;15.06;41.76;100918.54;1659112;85;21801;-80
2022/05/11 02:18:39;;;;;;;8.95;4.65;;;;;;;15.05;41.89;100920.28;1667605;84;21132;-81
2022/05/11 02:21:09;;;;;;;7.92;4.28;;;;;;;15.04;42.04;100920.29;1661331;86;21552;-80
2022/05/11 02:23:37;;;;;;;8.63;4.65;;;;;;;15.04;42.11;100925.15;1653601;86;21301;-81
2022/05/11 02:26:05;;;;;;;9.65;4.15;;;;;;;15.03;42.21;100917.17;1655857;86;21106;-81
2022/05/11 02:28:31;;;;;;;8.00;4.45;;;;;;;15.03;42.29;100918.50;1646446;86;22600;-80
2022/05/11 02:31:00;;;;;;;9.60;4.58;;;;;;;15.02;42.40;100912.77;1655574;86;21124;-81
2022/05/11 02:33:27;;;;;;;10.78;4.83;;;;;;;15.01;42.45;100906.55;1647476;86;21070;-82
2022/05/11 02:35:54;;;;;;;9.35;4.37;;;;;;;14.99;42.58;100896.82;1654946;86;21125;-82
2022/05/11 02:38:30;;;;;;;9.03;4.83;;;;;;;14.98;42.67;100893.29;1645768;86;21098;-81
2022/05/11 02:40:57;;;;;;;9.23;4.90;;;;;;;14.96;42.70;100891.95;1655317;86;23034;-81
2022/05/11 02:43:24;;;;;;;9.90;4.65;;;;;;;14.94;42.85;100892.37;1656842;84;21110;-80
2022/05/11 02:45:51;;;;;;;12.43;4.87;;;;;;;14.94;42.89;100890.13;1660491;86;22132;-80
2022/05/11 02:48:22;;;;;;;13.08;5.17;;;;;;;14.92;42.90;100888.82;1635886;87;21525;-82
2022/05/11 02:50:55;;;;;;;11.93;5.58;;;;;;;14.91;43.00;100872.89;1659915;86;21198;-81
2022/05/11 02:53:23;;;;;;;10.35;4.50;;;;;;;14.89;43.08;100871.55;1660142;84;21760;-81
2022/05/11 02:55:52;;;;;;;7.15;5.00;;;;;;;14.90;43.19;100872.02;1659273;86;21112;-81
2022/05/11 02:58:21;;;;;;;8.55;5.00;;;;;;;14.87;43.25;100868.00;1662064;86;21006;-80
2022/05/11 03:00:50;;;;;;;9.05;4.47;;;;;;;14.86;43.36;100874.61;1658874;84;22217;-81
2022/05/11 03:03:17;;;;;;;7.87;4.95;;;;;;;14.86;43.43;100869.31;1661480;85;21109;-81
2022/05/11 03:05:44;;;;;;;11.48;5.35;;;;;;;14.85;43.45;100869.75;1660255;86;21779;-80
2022/05/11 03:08:11;;;;;;;7.85;4.85;;;;;;;14.84;43.57;100865.31;1660597;86;21101;-81
2022/05/11 03:10:39;;;;;;;10.20;5.08;;;;;;;14.83;43.62;100871.50;1660717;85;21635;-81
2022/05/11 03:13:06;;;;;;;10.00;5.33;;;;;;;14.83;43.69;100875.89;1660829;85;21066;-81
2022/05/11 03:15:32;;;;;;;14.65;4.72;;;;;;;14.82;43.80;100877.66;1660755;86;21089;-81
2022/05/11 03:17:59;;;;;;;11.10;5.10;;;;;;;14.81;43.86;100878.55;1660853;85;22738;-81
2022/05/11 03:20:26;;;;;;;12.73;4.87;;;;;;;14.83;43.90;100890.05;1675576;84;21117;-81
2022/05/11 03:22:54;;;;;;;10.38;5.33;;;;;;;14.84;43.98;100903.73;1647817;86;21104;-81
2022/05/11 03:25:22;;;;;;;12.25;5.03;;;;;;;14.84;43.99;100906.83;1673132;84;21607;-81
2022/05/11 03:27:49;;;;;;;18.12;6.08;;;;;;;14.85;44.06;100905.53;1677788;84;21112;-81
2022/05/11 03:30:16;;;;;;;13.35;5.40;;;;;;;14.84;44.08;100906.39;1670186;83;21797;-81
2022/05/11 03:35:30;;;;;;;14.80;5.60;;;;;;;14.84;44.24;100907.71;1658075;86;21591;-81
2022/05/11 03:37:57;;;;;;;13.78;6.03;;;;;;;14.85;44.30;100915.25;1687464;84;21530;-80
2022/05/11 03:40:23;;;;;;;17.80;5.78;;;;;;;14.84;44.39;100906.83;1687332;83;21135;-80
2022/05/11 03:42:50;;;;;;;10.68;6.12;;;;;;;14.84;44.51;100909.48;1676116;83;21769;-79
2022/05/11 03:45:23;;;;;;;10.93;5.15;;;;;;;14.82;44.58;100914.77;1683855;84;21035;-80
2022/05/11 03:47:50;;;;;;;11.80;5.65;;;;;;;14.83;44.68;100913.91;1686360;83;21096;-79
2022/05/11 03:50:20;;;;;;;9.13;5.12;;;;;;;14.83;44.82;100912.58;1657852;86;21638;-81
2022/05/11 03:52:47;;;;;;;10.63;5.35;;;;;;;14.83;44.82;100911.25;1685607;83;21089;-79
2022/05/11 03:55:14;;;;;;;10.32;4.83;;;;;;;14.83;44.91;100914.31;1649871;84;21746;-80
2022/05/11 03:57:41;;;;;;;8.98;5.67;;;;;;;14.83;45.03;100909.93;1676938;83;21087;-82
2022/05/11 04:00:14;;;;;;;12.95;5.72;;;;;;;14.83;44.91;100912.99;1687679;83;22300;-80
2022/05/11 04:02:41;;;;;;;10.20;5.50;;;;;;;14.85;44.98;100904.20;1684330;84;21061;-80
2022/05/11 04:05:09;;;;;;;12.13;5.10;;;;;;;14.87;45.29;100912.17;1652139;84;21117;-80
2022/05/11 04:07:36;;;;;;;11.43;5.20;;;;;;;14.87;45.52;100924.11;1656719;84;23175;-83
2022/05/11 04:10:06;;;;;;;12.40;5.25;;;;;;;14.84;45.76;100930.23;1688005;83;21119;-80
2022/05/11 04:12:34;;;;;;;14.47;5.53;;;;;;;14.83;45.97;100919.20;1675638;84;21112;-82
2022/05/11 04:15:00;;;;;;;13.38;6.05;;;;;;;14.84;46.23;100928.91;1679381;83;21065;-81
2022/05/11 04:17:27;;;;;;;13.48;5.65;;;;;;;14.83;46.35;100920.94;1664396;85;21093;-83
2022/05/11 04:19:55;;;;;;;22.77;6.62;;;;;;;14.81;46.47;100919.63;1663657;84;22283;-79
2022/05/11 04:22:22;;;;;;;17.35;6.12;;;;;;;14.81;46.61;100912.09;1640736;85;21111;-80
2022/05/11 04:24:48;;;;;;;14.40;6.33;;;;;;;14.80;46.72;100912.54;1637462;85;21161;-82
2022/05/11 04:27:15;;;;;;;14.05;6.47;;;;;;;14.81;46.80;100913.42;1620069;85;21165;-79
2022/05/11 04:29:42;;;;;;;20.17;6.28;;;;;;;14.84;46.96;100900.21;1630755;85;21117;-82
2022/05/11 04:32:11;;;;;;;20.88;6.47;;;;;;;14.85;47.08;100887.42;1646666;85;22993;-81
2022/05/11 04:34:41;;;;;;;20.23;6.53;;;;;;;14.87;47.15;100879.05;1642690;87;21343;-80
2022/05/11 04:37:12;;;;;;;15.18;5.67;;;;;;;14.81;47.39;100865.30;1656847;83;21640;-80
2022/05/11 04:39:41;;;;;;;18.98;6.97;;;;;;;14.93;47.57;100875.13;1638344;87;21197;-86
2022/05/11 04:42:12;;;;;;;14.58;6.33;;;;;;;14.94;47.87;100880.86;1632669;87;21073;-80
2022/05/11 04:44:38;;;;;;;13.88;6.17;;;;;;;14.95;48.02;100875.58;1634299;87;22727;-85
2022/05/11 04:47:07;;;;;;;10.28;6.53;;;;;;;14.98;48.17;100876.06;1636823;87;21564;-79
2022/05/11 04:49:36;;;;;;;12.73;6.70;;;;;;;15.00;48.21;100886.23;1636722;87;21975;-78
2022/05/11 04:52:08;;;;;;;11.83;7.45;;;;;;;15.02;48.32;100887.14;1638828;86;21570;-80
2022/05/11 04:54:43;;;;;;;12.37;6.87;;;;;;;15.07;48.36;100889.81;1623868;86;21098;-81
2022/05/11 04:57:10;;;;;;;12.25;7.45;;;;;;;15.12;48.48;100896.05;1629203;86;21817;-81
2022/05/11 04:59:40;;;;;;;14.05;6.80;;;;;;;15.18;48.68;100883.28;1634183;87;21597;-80
2022/05/11 05:02:06;;;;;;;13.03;6.33;;;;;;;15.24;48.68;100878.02;1634325;86;21109;-81
2022/05/11 05:04:35;;;;;;;18.52;6.60;;;;;;;15.27;48.73;100877.61;1646250;84;21113;-78
2022/05/11 05:07:01;;;;;;;13.08;6.72;;;;;;;15.29;48.74;100890.89;1632002;86;21188;-79
2022/05/11 05:09:28;;;;;;;15.00;6.50;;;;;;;15.28;48.79;100897.09;1639537;85;21926;-79
2022/05/11 05:11:55;;;;;;;14.45;6.10;;;;;;;15.29;48.84;100894.42;1641568;85;21614;-80
2022/05/11 05:14:22;;;;;;;13.18;6.50;;;;;;;15.33;49.01;100897.98;1644933;85;21966;-81
2022/05/11 05:16:48;;;;;;;11.28;6.12;;;;;;;15.39;49.01;100896.73;1644328;87;21607;-81
2022/05/11 05:19:15;;;;;;;13.70;7.70;;;;;;;15.49;49.06;100895.91;1643692;87;21247;-86
2022/05/11 05:21:42;;;;;;;11.43;5.87;;;;;;;15.59;49.01;100894.64;1668495;85;21818;-84
2022/05/11 05:24:09;;;;;;;10.50;5.45;;;;;;;15.67;49.08;100899.14;1680206;83;21138;-86
2022/05/11 05:26:36;;;;;;;11.83;5.92;;;;;;;15.71;49.05;100892.97;1662479;84;21096;-87
2022/05/11 05:31:50;;;;;;;12.85;6.12;;;;;;;15.71;49.09;100903.58;1663359;85;21100;-83
2022/05/11 05:34:17;;;;;;;13.08;6.17;;;;;;;15.68;49.17;100910.19;1670031;85;22364;-83
2022/05/11 05:36:43;;;;;;;16.00;6.67;;;;;;;15.68;49.41;100910.19;1690206;83;21055;-83
2022/05/11 05:39:10;;;;;;;10.85;5.83;;;;;;;15.67;49.66;100911.08;1662379;85;21324;-87
2022/05/11 05:41:37;;;;;;;12.75;6.05;;;;;;;15.68;49.95;100903.55;1670161;85;21141;-81
2022/05/11 05:44:06;;;;;;;12.70;6.15;;;;;;;15.71;50.30;100869.08;1666560;85;21355;-82
2022/05/11 05:46:36;;;;;;;18.15;6.15;;;;;;;15.77;50.40;100847.03;1651068;85;21738;-81
2022/05/11 05:49:04;;;;;;;14.90;6.47;;;;;;;15.80;50.79;100870.03;1664167;85;21556;-83
2022/05/11 05:51:30;;;;;;;12.40;6.33;;;;;;;15.83;50.79;100885.98;1694457;84;21959;-84
2022/05/11 05:53:57;;;;;;;16.75;7.22;;;;;;;15.88;50.96;100872.31;1692358;84;21598;-82
2022/05/11 05:56:24;;;;;;;14.25;6.12;;;;;;;15.96;51.06;100876.33;1692410;83;21084;-82
2022/05/11 05:58:50;;;;;;;11.00;6.50;;;;;;;16.06;51.17;100877.67;1695611;83;21770;-81
2022/05/11 06:01:18;;;;;;;16.30;6.28;;;;;;;16.15;51.28;100870.66;1693710;83;21104;-82
2022/05/11 06:03:45;;;;;;;12.28;5.67;;;;;;;16.19;51.32;100873.77;1694808;84;21507;-82
2022/05/11 06:06:12;;;;;;;19.77;6.45;;;;;;;16.17;51.21;100856.94;1692874;84;21165;-83
2022/05/11 06:08:39;;;;;;;18.75;7.30;;;;;;;16.26;51.28;100864.48;1691774;84;21072;-83
2022/05/11 06:11:07;;;;;;;12.73;6.08;;;;;;;16.29;51.27;100868.50;1691914;83;22655;-83
2022/05/11 06:13:34;;;;;;;13.38;6.53;;;;;;;16.30;51.29;100874.69;1691463;84;21386;-81
2022/05/11 06:16:01;;;;;;;11.95;6.87;;;;;;;16.30;51.45;100878.67;1687718;84;21342;-83
2022/05/11 06:18:29;;;;;;;15.68;7.40;;;;;;;16.27;51.40;100886.20;1686789;83;21072;-82
2022/05/11 06:20:56;;;;;;;21.30;7.55;;;;;;;16.28;51.49;100885.75;1686870;83;21147;-81
2022/05/11 06:23:23;;;;;;;15.32;6.53;;;;;;;16.31;51.39;100891.97;1679344;83;22600;-83
2022/05/11 06:25:50;;;;;;;16.15;6.67;;;;;;;16.41;51.47;100899.97;1679467;83;21104;-83
2022/05/11 06:28:17;;;;;;;19.27;6.45;;;;;;;16.50;51.36;100895.56;1679644;83;21096;-82
2022/05/11 06:30:46;;;;;;;19.17;6.60;;;;;;;16.65;51.30;100896.50;1659864;83;21164;-84
2022/05/11 06:33:13;;;;;;;11.68;6.87;;;;;;;16.76;51.21;100895.17;1624259;87;21110;-82
2022/05/11 06:35:40;;;;;;;15.40;6.45;;;;;;;16.89;51.21;100890.34;1677161;83;21699;-84
2022/05/11 06:38:08;;;;;;;13.62;6.87;;;;;;;17.00;51.10;100871.30;1683298;84;21049;-82
2022/05/11 06:40:35;;;;;;;17.42;6.17;;;;;;;17.35;51.19;100889.05;1652626;86;21114;-82
2022/05/11 06:43:02;;;;;;;8.60;5.85;;;;;;;17.67;51.14;100883.67;1687447;83;21065;-84
2022/05/11 06:45:29;;;;;;;12.37;5.60;;;;;;;18.02;50.76;100890.72;1624730;86;21623;-83
2022/05/11 06:47:55;;;;;;;19.77;6.75;;;;;;;18.25;50.45;100882.63;1667559;84;21798;-82
2022/05/11 06:50:24;;;;;;;13.15;6.12;;;;;;;18.45;50.30;100878.55;1679565;85;21091;-82
2022/05/11 06:52:52;;;;;;;14.10;6.22;;;;;;;18.63;50.02;100885.53;1685695;84;21110;-81
2022/05/11 07:00:49;;;;;;;16.77;6.33;;;;;;;18.82;49.31;100887.66;1678725;84;21794;-83
2022/05/11 07:03:16;;;;;;;11.40;7.00;;;;;;;18.86;49.32;100887.66;1678570;83;21137;-84
2022/05/11 07:05:43;;;;;;;14.70;6.90;;;;;;;18.92;49.28;100888.94;1682825;84;21517;-83
2022/05/11 07:08:10;;;;;;;14.28;6.40;;;;;;;18.99;49.18;100900.00;1686822;84;21181;-84
2022/05/11 07:10:39;;;;;;;15.93;6.62;;;;;;;19.13;49.21;100895.46;1682324;84;21109;-84
2022/05/11 07:13:05;;;;;;;14.28;7.92;;;;;;;19.29;48.99;100897.53;1661630;83;21741;-84
2022/05/11 07:15:32;;;;;;;10.78;7.50;;;;;;;19.54;48.99;100902.65;1672336;85;21105;-84
2022/05/11 07:18:00;;;;;;;13.88;6.50;;;;;;;19.78;48.83;100897.55;1638965;87;21124;-84
2022/05/11 07:20:36;;;;;;;18.27;6.55;;;;;;;20.01;48.72;100908.00;1679149;83;21062;-83
2022/05/11 07:23:05;;;;;;;15.58;7.05;;;;;;;20.26;48.45;100913.93;1682700;84;21112;-84
2022/05/11 07:25:31;;;;;;;15.03;6.75;;;;;;;20.41;48.09;100910.17;1686235;84;22599;-84
2022/05/11 07:27:58;;;;;;;13.40;6.87;;;;;;;20.58;47.82;100907.28;1686982;84;21712;-84
2022/05/11 07:30:30;;;;;;;12.63;6.35;;;;;;;20.73;47.70;100914.23;1684538;84;21110;-83
2022/05/11 07:32:57;;;;;;;14.28;6.80;;;;;;;20.96;47.56;100912.08;1699848;83;21121;-84
2022/05/11 07:35:24;;;;;;;14.40;6.75;;;;;;;21.10;47.18;100915.91;1652548;85;21349;-84
2022/05/11 07:37:51;;;;;;;17.98;7.37;;;;;;;21.29;47.03;100921.84;1667706;85;21751;-83
2022/05/11 07:40:18;;;;;;;17.77;7.53;;;;;;;21.46;46.85;100920.25;1684471;83;21048;-84
2022/05/11 07:42:45;;;;;;;17.12;6.47;;;;;;;21.58;46.59;100914.24;1650408;85;21085;-84
2022/05/11 07:45:13;;;;;;;11.40;5.90;;;;;;;21.68;46.62;100913.19;1679766;83;21092;-84
2022/05/11 07:47:39;;;;;;;7.25;6.08;;;;;;;21.77;46.33;100906.75;1686259;83;21093;-84
2022/05/11 07:50:08;;;;;;;11.75;6.33;;;;;;;21.75;46.13;100898.73;1682722;84;21893;-83
2022/05/11 07:52:34;;;;;;;12.70;6.40;;;;;;;21.73;46.20;100896.54;1659675;83;21257;-82
2022/05/11 07:55:01;;;;;;;12.93;5.95;;;;;;;21.83;46.31;100894.56;1662869;84;21118;-83
2022/05/11 08:00:15;;;;;;;14.85;5.92;;;;;;;21.92;45.86;100892.61;1678685;83;21093;-82
2022/05/11 08:02:41;;;;;;;15.23;6.55;;;;;;;21.90;45.98;100900.23;1679196;83;21761;-82
2022/05/11 08:05:12;;;;;;;14.03;6.03;;;;;;;21.93;46.02;100881.43;1679002;83;21141;-82
2022/05/11 08:07:44;;;;;;;11.18;6.10;;;;;;;22.21;45.92;100902.32;1678119;83;21061;-82
2022/05/11 08:10:18;;;;;;;11.05;6.40;;;;;;;22.29;45.83;100902.60;1684461;84;21093;-82
2022/05/11 08:12:46;;;;;;;13.98;8.38;;;;;;;22.64;45.76;100906.33;1678936;83;21096;-82
2022/05/11 08:15:13;;;;;;;16.42;7.65;;;;;;;22.64;45.76;100906.33;1679156;83;21771;-81
2022/05/11 08:17:42;;;;;;;12.05;5.17;;;;;;;22.70;45.15;100903.96;1682839;84;21078;-82
2022/05/11 08:20:16;;;;;;;11.60;5.67;;;;;;;22.70;45.15;100903.96;1680887;84;21089;-83
2022/05/11 08:22:45;;;;;;;9.00;4.72;;;;;;;22.90;45.19;100907.53;1679186;84;21084;-83
2022/05/11 08:25:15;;;;;;;6.17;5.08;;;;;;;22.93;45.16;100883.75;1673328;83;21172;-84
2022/05/11 08:27:44;;;;;;;7.05;5.65;;;;;;;23.24;44.95;100906.28;1679095;85;21081;-83
2022/05/11 08:35:47;;;;;;;7.90;5.37;;;;;;;23.27;44.51;100907.55;1680206;83;21619;-84
2022/05/11 08:38:15;;;;;;;7.30;5.10;;;;;;;23.17;44.55;100957.49;1653700;86;21158;-83
2022/05/11 08:41:07;;;;;;;8.38;5.15;;;;;;;22.80;44.61;100894.77;1664675;85;22570;-83
2022/05/11 08:43:34;;;;;;;8.23;5.12;;;;;;;22.73;45.28;100907.02;1681851;83;21072;-82
2022/05/11 08:46:40;;;;;;;7.92;6.87;;;;;;;22.52;45.50;100906.58;1672004;83;21720;-83
2022/05/11 08:49:27;;;;;;;7.50;5.30;;;;;;;21.90;46.09;100913.20;1613676;88;21306;-82
2022/05/11 08:52:10;;;;;;;6.30;4.90;;;;;;;21.76;46.70;100915.25;1657221;86;21090;-83
2022/05/11 08:54:49;;;;;;;6.97;5.10;;;;;;;21.76;46.70;100915.25;1635070;86;22474;-82
2022/05/11 08:57:20;;;;;;;6.85;5.08;;;;;;;21.63;47.81;100908.36;1628357;87;21133;-84
2022/05/11 08:59:47;;;;;;;9.48;5.90;;;;;;;21.61;48.01;100904.83;1654040;86;21205;-84
2022/05/11 09:02:28;;;;;;;10.75;5.67;;;;;;;21.61;48.01;100904.83;1640902;86;21098;-84
2022/05/11 09:04:58;;;;;;;7.37;5.45;;;;;;;21.58;48.07;100907.08;1658076;85;21125;-84
2022/05/11 09:07:27;;;;;;;5.90;4.60;;;;;;;21.57;48.15;100909.78;1658490;86;22648;-82
2022/05/11 09:09:54;;;;;;;7.85;5.25;;;;;;;21.53;48.32;100914.34;1658014;86;21356;-82
2022/05/11 09:12:21;;;;;;;6.40;5.20;;;;;;;21.52;48.42;100910.75;1658114;86;21141;-84
2022/05/11 09:14:52;;;;;;;8.45;5.17;;;;;;;21.52;48.77;100908.08;1658691;86;21138;-83
2022/05/11 09:17:36;;;;;;;5.35;4.58;;;;;;;21.54;48.93;100890.18;1657943;86;21654;-83
2022/05/11 09:20:18;;;;;;;;;;;;;;;21.84;48.86;100905.72;1671080;84;21761;-84
2022/05/11 09:22:59;;;;;;;7.47;4.33;;;;;;;22.02;49.00;100902.69;1685422;84;20303;-83
2022/05/11 09:25:30;;;;;;;6.00;4.28;;;;;;;22.19;48.62;100902.81;1685773;83;21053;-82
2022/05/11 09:28:23;;;;;;;5.62;4.62;;;;;;;22.22;48.49;100882.62;1688077;84;21076;-82
2022/05/11 09:31:04;;;;;;;;;;;;;;;22.22;48.49;100882.62;1689580;84;21331;-82
2022/05/11 09:33:33;;;;;;;6.72;4.45;;;;;;;22.43;48.46;100902.33;1686889;84;21774;-83
2022/05/11 09:36:02;;;;;;;8.03;5.03;;;;;;;22.43;48.46;100902.33;1683717;84;21449;-82
2022/05/11 09:38:41;;;;;;;4.97;4.35;;;;;;;22.44;48.66;100897.84;1683608;83;21069;-83
2022/05/11 09:41:22;;;;;;;11.80;4.75;;;;;;;22.53;48.38;100903.00;1683646;83;21085;-83
2022/05/11 09:43:56;;;;;;;6.30;4.58;;;;;;;22.64;48.47;100896.94;1684112;84;21128;-83
2022/05/11 09:46:32;;;;;;;4.78;4.25;;;;;;;22.84;48.12;100899.61;1691575;83;21850;-83
2022/05/11 09:49:19;;;;;;;6.15;3.50;;;;;;;22.82;47.96;100874.14;1659009;84;21091;-83
2022/05/11 09:51:51;;;;;;;11.25;4.80;;;;;;;22.97;47.72;100890.80;1687189;83;21057;-83
2022/05/11 09:54:46;;;;;;;5.03;4.35;;;;;;;22.94;47.93;100890.44;1687620;84;21108;-84
2022/05/11 09:57:15;;;;;;;5.60;4.15;;;;;;;22.91;47.67;100891.84;1672183;84;21165;-84
2022/05/11 09:59:45;;;;;;;7.35;4.12;;;;;;;22.85;47.65;100887.97;1684562;83;21745;-83
2022/05/11 10:02:35;;;;;;;5.97;4.03;;;;;;;22.74;47.61;100889.55;1687303;84;22266;-83
2022/05/11 10:05:17;;;;;;;7.33;4.37;;;;;;;22.65;47.58;100888.42;1690995;83;21582;-84
2022/05/11 10:07:52;;;;;;;5.60;4.45;;;;;;;22.30;47.65;100848.06;1661528;84;21646;-84
2022/05/11 10:10:36;;;;;;;6.60;4.42;;;;;;;22.35;47.54;100886.84;1690059;84;21086;-84
2022/05/11 10:13:14;;;;;;;9.88;4.47;;;;;;;22.25;47.69;100875.86;1674558;84;21768;-84
2022/05/11 10:21:56;;;;;;;5.67;4.50;;;;;;;22.13;47.76;100852.89;1636613;87;21125;-83
2022/05/11 10:25:00;;;;;;;5.72;4.50;;;;;;;22.39;47.92;100846.99;1630294;85;21195;-82
2022/05/11 10:27:37;;;;;;;5.97;5.10;;;;;;;22.39;47.92;100846.99;1645073;85;21754;-83
2022/05/11 10:30:28;;;;;;;10.15;4.53;;;;;;;22.73;47.66;100874.82;1690415;83;21575;-83
2022/05/11 10:33:22;;;;;;;5.45;4.10;;;;;;;22.80;47.41;100875.98;1690828;83;21156;-83
2022/05/11 10:36:25;;;;;;;4.45;4.05;;;;;;;22.82;47.30;100880.84;1693358;84;21658;-83
2022/05/11 10:39:23;;;;;;;7.05;4.10;;;;;;;22.87;47.26;100883.44;1697540;84;21081;-84
2022/05/11 10:42:13;;;;;;;5.55;4.40;;;;;;;22.90;47.19;100881.56;1695368;84;21801;-85
2022/05/11 10:45:05;;;;;;;5.40;4.35;;;;;;;22.95;47.10;100873.39;1677276;83;21535;-83
2022/05/11 10:48:08;;;;;;;6.78;3.80;;;;;;;22.95;47.13;100874.73;1690051;84;21180;-83
2022/05/11 10:51:01;;;;;;;7.05;4.53;;;;;;;22.88;47.06;100879.38;1695223;83;21064;-84
2022/05/11 10:53:54;;;;;;;8.20;4.53;;;;;;;22.94;47.16;100862.69;1674188;84;21143;-85
2022/05/11 10:56:44;;;;;;;6.50;4.25;;;;;;;22.86;47.07;100829.33;1692471;83;22708;-84
2022/05/11 10:59:41;;;;;;;5.87;5.22;;;;;;;23.29;46.86;100874.83;1636035;87;22088;-84
2022/05/11 11:02:42;;;;;;;7.42;4.30;;;;;;;23.57;46.81;100861.11;1625237;87;21104;-84
2022/05/11 11:05:26;;;;;;;6.90;4.20;;;;;;;23.65;46.45;100848.36;1594474;87;21180;-84
2022/05/11 11:08:07;;;;;;;4.70;4.10;;;;;;;24.00;46.19;100866.66;1649846;86;21118;-84
2022/05/11 11:11:08;;;;;;;6.67;3.97;;;;;;;24.18;45.81;100858.53;1640532;86;23639;-84
2022/05/11 11:14:00;;;;;;;8.95;4.00;;;;;;;24.35;45.38;100858.02;1659210;85;21456;-83
2022/05/11 11:16:34;;;;;;;4.83;4.35;;;;;;;24.58;45.21;100854.64;1657848;86;22021;-84
2022/05/11 11:19:03;;;;;;;7.80;3.60;;;;;;;24.65;45.04;100849.48;1658031;86;21098;-83
2022/05/11 11:21:31;;;;;;;7.80;4.47;;;;;;;24.75;44.95;100852.28;1658946;85;21165;-83
2022/05/11 11:24:24;;;;;;;5.03;4.12;;;;;;;24.90;44.81;100844.65;1658961;84;21798;-83
2022/05/11 11:26:59;;;;;;;5.90;3.90;;;;;;;24.98;44.55;100842.56;1659891;85;21103;-84
2022/05/11 11:29:38;;;;;;;5.97;3.80;;;;;;;25.12;44.18;100848.38;1627136;87;21156;-82
2022/05/11 11:32:13;;;;;;;5.58;4.00;;;;;;;25.26;44.06;100847.06;1618652;86;21084;-82
2022/05/11 11:34:44;;;;;;;3.72;3.33;;;;;;;25.40;43.71;100837.56;1624904;87;21640;-83
2022/05/11 11:37:36;;;;;;;5.10;3.87;;;;;;;25.58;43.37;100837.83;1659095;85;21559;-83
2022/05/11 11:40:21;;;;;;;4.83;3.35;;;;;;;25.71;42.96;100828.36;1658559;86;21126;-83
2022/05/11 11:42:51;;;;;;;4.55;2.98;;;;;;;25.77;42.51;100831.30;1659649;85;21129;-82
2022/05/11 11:45:41;;;;;;;4.58;3.08;;;;;;;25.81;42.28;100814.09;1646736;87;21137;-83
2022/05/11 11:48:18;;;;;;;4.50;2.42;;;;;;;25.95;42.08;100802.81;1612350;86;21111;-83
2022/05/11 11:50:55;;;;;;;3.17;2.30;;;;;;;26.11;41.70;100813.88;1612027;87;22573;-83
2022/05/11 11:53:39;;;;;;;3.25;2.85;;;;;;;26.24;41.29;100813.83;1644919;85;21109;-83
2022/05/11 11:56:29;;;;;;;2.95;2.50;;;;;;;26.30;40.73;100810.02;1637399;86;21153;-83
2022/05/11 11:59:12;;;;;;;3.02;2.47;;;;;;;26.28;40.34;100794.36;1611430;86;21659;-83
2022/05/11 12:01:42;;;;;;;4.37;2.50;;;;;;;26.37;40.35;100793.95;1625821;87;21133;-82
2022/05/11 12:04:31;;;;;;;5.05;2.92;;;;;;;26.46;40.09;100782.80;1610313;87;21639;-82
2022/05/11 12:15:38;;;;;;;3.05;2.60;;;;;;;26.36;39.39;100767.45;1616710;87;21131;-84
2022/05/11 12:18:28;;;;;;;4.92;2.60;;;;;;;26.26;39.18;100743.59;1615301;87;22652;-82
2022/05/11 12:20:55;;;;;;;3.52;2.70;;;;;;;26.42;38.98;100758.23;1629826;85;21114;-84